Главная страница
METAR-TAF:

METAR-TAF

Аэропорты :

Мапуту, Мозамбик

широта: 25-55S, долгота: 032-34E, высота над уровнем моря: 39 м

Текущие метеонаблюдения

Эта сводка был подготовлена 34 минут назад, в 14:00 UTC
Ветер 11 Узел от восточно-северо-восточный
Температура 29°C
Влажность 55%
Давление 1016 hPa
Видимость 10 км и более
Нет облачности ниже 1500 м, и нет кучево-дождевой облачности

METAR: FQMA 251400Z 07011KT CAVOK 29/19 Q1016 NOSIG

Время: 16:34 (14:34 UTC)


TAF: отсутствует

Метеонаблюдения и прогнозы для более 4000 аэропортов (сводки METAR и TAF).

Имеющиеся станции представлены на карте желтыми и красными точками.

Чтобы увидеть название станции, наведите на нее мышь.

Затем щелкните, чтобы увидеть метеонаблюдения и метеопрогнозы.

Управление картой: чтобы увеличить масштаб, щелкните зеленые кнопки с черным крестиком; чтобы уменьшить масштаб, щелкните зеленую кнопку с тире; для просмотра соседних карт щелкайте зеленые стрелки.


METAR-TAF: